createdAt,value
2022-12-17T00:02:18.381Z,1.52
2022-12-17T00:05:06.178Z,1.74
2022-12-17T00:07:51.359Z,1.45
2022-12-17T00:10:36.986Z,1.57
2022-12-17T00:13:22.284Z,1.46
2022-12-17T00:16:11.192Z,1.55
2022-12-17T00:18:56.479Z,1.62
2022-12-17T00:21:41.741Z,1.56
2022-12-17T00:24:26.906Z,1.46
2022-12-17T00:27:12.174Z,1.59
2022-12-17T00:29:57.511Z,1.79
2022-12-17T00:35:42.029Z,1.66
2022-12-17T00:39:06.498Z,1.70
2022-12-17T00:41:51.580Z,1.76
2022-12-17T00:44:36.729Z,1.63
2022-12-17T00:47:22.245Z,1.74
2022-12-17T00:50:07.594Z,1.74
2022-12-17T00:52:52.756Z,1.62
2022-12-17T00:55:37.988Z,1.68
2022-12-17T00:58:23.139Z,1.45
2022-12-17T01:01:08.474Z,1.55
2022-12-17T01:04:20.704Z,1.44
2022-12-17T01:07:17.188Z,1.38
2022-12-17T01:10:02.766Z,1.38
2022-12-17T01:13:05.551Z,1.51
2022-12-17T01:15:56.621Z,1.51
2022-12-17T01:18:43.223Z,1.37
2022-12-17T01:24:51.362Z,1.41
2022-12-17T01:27:46.366Z,1.50
2022-12-17T01:30:31.987Z,1.30
2022-12-17T01:33:25.211Z,1.27
2022-12-17T01:36:14.745Z,1.35
2022-12-17T01:38:59.988Z,1.39
2022-12-17T01:41:45.175Z,1.35
2022-12-17T01:45:15.050Z,1.30
2022-12-17T01:48:08.088Z,1.27
2022-12-17T01:50:57.896Z,1.39
2022-12-17T01:53:45.871Z,1.42
2022-12-17T01:59:31.388Z,1.20
2022-12-17T02:02:23.251Z,1.40
2022-12-17T02:05:08.729Z,1.33
2022-12-17T02:08:28.177Z,1.34
2022-12-17T02:11:28.912Z,1.18
2022-12-17T02:18:22.184Z,1.41
2022-12-17T02:23:14.745Z,1.42
2022-12-17T02:28:22.713Z,1.38
2022-12-17T02:31:34.569Z,1.35
2022-12-17T02:34:28.825Z,1.29
2022-12-17T02:40:48.850Z,1.35
2022-12-17T02:43:54.032Z,1.28
2022-12-17T02:57:57.128Z,1.26
2022-12-17T03:00:34.404Z,1.02
2022-12-17T03:03:36.612Z,0.96
2022-12-17T03:07:08.664Z,1.02
2022-12-17T03:13:07.845Z,1.09
2022-12-17T03:16:04.106Z,1.09
2022-12-17T03:19:14.801Z,0.85
2022-12-17T03:22:51.326Z,0.87
2022-12-17T03:25:36.222Z,0.87
2022-12-17T03:28:24.454Z,0.92
2022-12-17T03:31:09.695Z,1.17
2022-12-17T03:33:55.531Z,1.18
2022-12-17T03:36:41.739Z,1.26
2022-12-17T03:39:26.847Z,1.35
2022-12-17T03:42:11.992Z,1.43
2022-12-17T03:44:57.177Z,1.33
2022-12-17T03:47:42.340Z,1.18
2022-12-17T03:50:28.339Z,1.46
2022-12-17T03:53:14.791Z,1.53
2022-12-17T03:56:00.179Z,1.65
2022-12-17T03:58:45.507Z,1.85
2022-12-17T04:01:30.640Z,1.81
2022-12-17T04:04:21.435Z,1.62
2022-12-17T04:07:07.012Z,1.74
2022-12-17T04:09:59.251Z,1.61
2022-12-17T04:12:44.796Z,1.87
2022-12-17T04:15:31.347Z,1.67
2022-12-17T04:18:16.604Z,1.72
2022-12-17T04:21:05.857Z,2.16
2022-12-17T04:23:50.807Z,2.01
2022-12-17T04:26:36.144Z,2.15
2022-12-17T04:29:21.339Z,2.16
2022-12-17T04:35:06.114Z,2.21
2022-12-17T04:37:50.957Z,2.09
2022-12-17T04:43:44.493Z,2.07
2022-12-17T04:49:42.687Z,2.91
2022-12-17T04:52:49.146Z,3.50
2022-12-17T04:56:41.220Z,3.68
2022-12-17T05:13:47.442Z,5.15
2022-12-17T05:32:55.136Z,5.37
2022-12-17T05:35:42.781Z,5.25
2022-12-17T05:38:29.315Z,5.07
2022-12-17T05:41:16.029Z,5.01
2022-12-17T05:44:01.283Z,4.98
2022-12-17T05:46:51.479Z,4.85
2022-12-17T05:50:02.799Z,4.84
2022-12-17T05:53:42.490Z,4.84
2022-12-17T05:56:26.055Z,4.77
2022-12-17T05:59:11.273Z,4.83
2022-12-17T06:02:17.262Z,4.93
2022-12-17T06:08:50.483Z,4.80
2022-12-17T06:11:09.891Z,4.98
2022-12-17T06:13:55.273Z,5.14
2022-12-17T06:16:40.527Z,4.93
2022-12-17T06:19:25.649Z,5.04
2022-12-17T06:22:11.170Z,4.92
2022-12-17T06:24:59.694Z,4.67
2022-12-17T06:27:46.094Z,4.88
2022-12-17T06:30:31.741Z,4.78
2022-12-17T06:33:27.990Z,4.36
2022-12-17T06:36:21.689Z,4.10
2022-12-17T06:39:08.060Z,4.29
2022-12-17T06:41:54.769Z,4.07
2022-12-17T06:44:47.577Z,3.82
2022-12-17T06:47:55.184Z,3.81
2022-12-17T06:50:59.057Z,3.92
2022-12-17T06:53:46.739Z,4.19
2022-12-17T06:56:54.789Z,4.28
2022-12-17T07:00:10.740Z,4.28
2022-12-17T07:07:40.447Z,4.21
2022-12-17T07:27:44.501Z,4.38
2022-12-17T07:30:30.503Z,4.70
2022-12-17T07:33:27.818Z,4.56
2022-12-17T07:36:16.677Z,4.64
2022-12-17T07:39:44.537Z,4.42
2022-12-17T07:42:47.793Z,4.43
2022-12-17T07:48:40.823Z,4.49
2022-12-17T07:51:45.144Z,4.54
2022-12-17T07:54:49.143Z,4.58
2022-12-17T07:57:56.816Z,4.42
2022-12-17T08:03:52.459Z,4.36
2022-12-17T08:07:04.100Z,4.30
2022-12-17T08:12:43.136Z,4.52
2022-12-17T08:15:28.822Z,4.52
2022-12-17T08:25:00.125Z,4.75
2022-12-17T08:32:11.797Z,4.70
2022-12-17T08:35:14.977Z,4.65
2022-12-17T08:41:24.555Z,4.88
2022-12-17T08:44:09.798Z,4.85
2022-12-17T08:46:59.651Z,5.01
2022-12-17T08:49:55.389Z,5.10
2022-12-17T08:52:40.607Z,5.06
2022-12-17T08:55:26.311Z,5.09
2022-12-17T08:58:14.816Z,5.07
2022-12-17T09:01:01.259Z,5.12
2022-12-17T09:03:49.247Z,5.17
2022-12-17T09:06:38.856Z,5.14
2022-12-17T09:09:26.083Z,5.24
2022-12-17T09:12:21.889Z,5.34
2022-12-17T09:15:48.301Z,5.37
2022-12-17T09:19:58.639Z,5.29
2022-12-17T09:24:50.514Z,5.43
2022-12-17T09:28:08.657Z,5.39
2022-12-17T09:30:56.359Z,5.38
2022-12-17T09:33:41.522Z,5.60
2022-12-17T09:36:29.456Z,5.63
2022-12-17T09:39:14.783Z,5.65
2022-12-17T09:42:19.167Z,5.59
2022-12-17T09:45:15.910Z,5.61
2022-12-17T09:48:20.580Z,5.83
2022-12-17T09:51:14.039Z,5.76
2022-12-17T09:54:07.793Z,5.83
2022-12-17T09:56:54.138Z,6.04
2022-12-17T09:59:45.702Z,6.27
2022-12-17T10:02:35.621Z,6.31
2022-12-17T10:05:23.884Z,6.57
2022-12-17T10:08:09.785Z,6.74
2022-12-17T10:11:02.158Z,6.71
2022-12-17T10:13:47.029Z,6.87
2022-12-17T10:16:56.433Z,6.72
2022-12-17T10:19:51.232Z,6.76
2022-12-17T10:22:39.530Z,6.93
2022-12-17T10:25:41.719Z,6.90
2022-12-17T10:28:32.767Z,6.96
2022-12-17T10:31:19.316Z,7.06
2022-12-17T10:34:05.678Z,6.97
2022-12-17T10:36:51.238Z,6.95
2022-12-17T10:39:41.071Z,7.30
2022-12-17T10:42:50.358Z,7.20
2022-12-17T10:45:52.875Z,7.14
2022-12-17T10:48:43.696Z,7.14
2022-12-17T10:51:43.378Z,7.22
2022-12-17T10:54:48.688Z,7.09
2022-12-17T10:57:46.027Z,7.19
2022-12-17T11:00:37.207Z,7.12
2022-12-17T11:03:22.609Z,6.78
2022-12-17T11:06:13.366Z,6.79
2022-12-17T11:08:59.653Z,6.92
2022-12-17T11:11:44.748Z,6.96
2022-12-17T11:14:32.153Z,7.00
2022-12-17T11:17:26.360Z,6.89
2022-12-17T11:20:13.037Z,6.70
2022-12-17T11:23:14.784Z,6.86
2022-12-17T11:26:19.150Z,6.80
2022-12-17T11:29:04.406Z,6.67
2022-12-17T11:32:39.445Z,6.72
2022-12-17T11:35:30.523Z,6.87
2022-12-17T11:38:43.018Z,6.85
2022-12-17T11:41:37.919Z,6.68
2022-12-17T11:44:28.307Z,6.65
2022-12-17T11:47:38.096Z,6.56
2022-12-17T11:50:55.265Z,6.56
2022-12-17T11:53:55.758Z,6.42
2022-12-17T11:56:51.795Z,6.38
2022-12-17T11:59:52.845Z,6.39
2022-12-17T12:02:54.457Z,6.47
2022-12-17T12:05:57.023Z,6.35
2022-12-17T12:08:53.783Z,6.33
2022-12-17T12:12:00.404Z,6.21
2022-12-17T12:15:06.891Z,6.09
2022-12-17T12:17:58.531Z,6.09
2022-12-17T12:21:10.933Z,6.11
2022-12-17T12:24:14.688Z,5.97
2022-12-17T12:27:15.478Z,5.90
2022-12-17T12:30:12.760Z,5.89
2022-12-17T12:33:12.224Z,6.00
2022-12-17T12:35:58.797Z,6.03
2022-12-17T12:38:50.863Z,6.15
2022-12-17T12:41:55.430Z,6.21
2022-12-17T12:45:13.985Z,6.26
2022-12-17T12:48:20.543Z,6.26
2022-12-17T12:51:20.460Z,6.25
2022-12-17T12:54:16.132Z,6.21
2022-12-17T12:57:01.523Z,6.17
2022-12-17T12:59:52.439Z,6.24
2022-12-17T13:02:48.360Z,6.25
2022-12-17T13:05:34.986Z,6.16
2022-12-17T13:08:07.740Z,6.19
2022-12-17T13:10:36.334Z,6.16
2022-12-17T13:13:36.666Z,6.25
2022-12-17T13:16:47.840Z,6.28
2022-12-17T13:19:42.107Z,6.27
2022-12-17T13:22:20.024Z,6.10
2022-12-17T13:24:52.929Z,6.20
2022-12-17T13:27:35.716Z,6.21
2022-12-17T13:30:17.604Z,6.16
2022-12-17T13:33:17.955Z,6.17
2022-12-17T13:36:21.793Z,6.09
2022-12-17T13:38:57.522Z,6.16
2022-12-17T13:41:31.037Z,6.10
2022-12-17T13:44:02.279Z,6.10
2022-12-17T13:46:36.041Z,6.09
2022-12-17T13:49:06.082Z,6.11
2022-12-17T13:51:35.312Z,6.05
2022-12-17T13:54:04.663Z,5.99
2022-12-17T13:56:34.818Z,6.00
2022-12-17T13:59:08.380Z,5.94
2022-12-17T14:01:45.744Z,5.87
2022-12-17T14:04:29.343Z,5.87
2022-12-17T14:07:03.224Z,5.81
2022-12-17T14:09:36.849Z,5.77
2022-12-17T14:12:24.055Z,5.78
2022-12-17T14:15:16.416Z,5.80
2022-12-17T14:17:46.234Z,5.75
2022-12-17T14:20:22.481Z,5.76
2022-12-17T14:22:55.506Z,5.70
2022-12-17T14:25:24.900Z,5.79
2022-12-17T14:27:57.719Z,5.96
2022-12-17T14:31:02.454Z,5.96
2022-12-17T14:33:35.973Z,5.88
2022-12-17T14:36:23.606Z,5.80
2022-12-17T14:38:57.675Z,5.75
2022-12-17T14:41:43.430Z,5.63
2022-12-17T14:44:22.648Z,5.60
2022-12-17T14:46:50.622Z,5.58
2022-12-17T14:49:20.115Z,5.58
2022-12-17T14:51:47.913Z,5.58
2022-12-17T14:54:25.720Z,5.51
2022-12-17T14:56:54.525Z,5.48
2022-12-17T14:59:38.135Z,5.29
2022-12-17T15:02:13.639Z,5.24
2022-12-17T15:04:40.611Z,5.22
2022-12-17T15:07:09.882Z,5.24
2022-12-17T15:09:41.614Z,5.16
2022-12-17T15:12:14.415Z,5.03
2022-12-17T15:14:40.976Z,4.95
2022-12-17T15:17:10.648Z,4.90
2022-12-17T15:19:41.795Z,4.79
2022-12-17T15:22:16.527Z,4.76
2022-12-17T15:24:44.503Z,4.63
2022-12-17T15:27:14.036Z,4.36
2022-12-17T15:29:40.843Z,4.30
2022-12-17T15:32:07.889Z,4.30
2022-12-17T15:34:34.729Z,4.20
2022-12-17T15:37:01.292Z,4.29
2022-12-17T15:39:38.299Z,4.20
2022-12-17T15:42:23.554Z,4.40
2022-12-17T15:44:50.058Z,4.44
2022-12-17T15:47:21.974Z,4.36
2022-12-17T15:49:48.571Z,4.31
2022-12-17T15:52:15.235Z,4.14
2022-12-17T15:54:42.733Z,4.02
2022-12-17T15:57:13.960Z,3.85
2022-12-17T15:59:43.740Z,3.93
2022-12-17T16:02:11.254Z,4.00
2022-12-17T16:04:37.918Z,3.93
2022-12-17T16:07:05.477Z,3.81
2022-12-17T16:09:35.826Z,3.81
2022-12-17T16:12:02.432Z,3.83
2022-12-17T16:14:29.118Z,3.77
2022-12-17T16:16:55.578Z,3.57
2022-12-17T16:19:22.248Z,3.53
2022-12-17T16:21:48.877Z,3.40
2022-12-17T16:24:15.477Z,3.33
2022-12-17T16:26:42.200Z,3.39
2022-12-17T16:29:08.884Z,3.34
2022-12-17T16:31:35.643Z,3.36
2022-12-17T16:34:02.260Z,3.56
2022-12-17T16:36:28.873Z,3.64
2022-12-17T16:38:55.451Z,3.45
2022-12-17T16:41:22.223Z,3.30
2022-12-17T16:43:48.932Z,3.36
2022-12-17T16:46:33.949Z,3.25
2022-12-17T16:49:06.752Z,3.31
2022-12-17T16:51:33.744Z,3.46
2022-12-17T16:54:06.577Z,3.23
2022-12-17T16:56:39.440Z,3.39
2022-12-17T16:59:08.284Z,3.50
2022-12-17T17:01:36.542Z,3.25
2022-12-17T17:04:06.773Z,3.25
2022-12-17T17:07:26.459Z,3.18
2022-12-17T17:09:52.524Z,3.12
2022-12-17T17:12:43.288Z,3.24
2022-12-17T17:15:30.360Z,3.40
2022-12-17T17:23:30.849Z,3.10
2022-12-17T17:25:58.719Z,3.17
2022-12-17T17:28:25.438Z,3.18
2022-12-17T17:31:00.211Z,3.15
2022-12-17T17:33:36.108Z,3.11
2022-12-17T17:36:14.723Z,3.10
2022-12-17T17:38:41.763Z,3.14
2022-12-17T17:41:11.309Z,3.20
2022-12-17T17:43:38.257Z,3.13
2022-12-17T17:46:14.925Z,3.11
2022-12-17T17:48:42.885Z,3.04
2022-12-17T17:51:14.830Z,3.20
2022-12-17T17:53:42.588Z,3.27
2022-12-17T17:56:15.779Z,3.29
2022-12-17T17:58:47.011Z,3.24
2022-12-17T18:01:19.876Z,3.17
2022-12-17T18:03:46.791Z,3.15
2022-12-17T18:06:14.618Z,3.18
2022-12-17T18:08:42.701Z,3.14
2022-12-17T18:11:12.151Z,2.98
2022-12-17T18:13:57.725Z,2.97
2022-12-17T18:16:28.923Z,2.97
2022-12-17T18:19:13.341Z,3.25
2022-12-17T18:21:47.931Z,3.47
2022-12-17T18:24:27.330Z,3.30
2022-12-17T18:30:09.915Z,2.98
2022-12-17T18:32:46.675Z,2.92
2022-12-17T18:35:20.970Z,2.93
2022-12-17T18:37:52.213Z,3.08
2022-12-17T18:40:26.563Z,2.90
2022-12-17T18:43:21.188Z,2.76
2022-12-17T18:46:23.173Z,2.60
2022-12-17T18:48:59.095Z,2.59
2022-12-17T18:54:13.590Z,2.61
2022-12-17T19:02:33.807Z,2.68
2022-12-17T19:05:05.406Z,2.71
2022-12-17T19:07:32.051Z,2.74
2022-12-17T19:10:23.952Z,2.86
2022-12-17T19:12:57.820Z,2.62
2022-12-17T19:15:51.017Z,2.60
2022-12-17T19:18:17.864Z,2.70
2022-12-17T19:21:43.513Z,2.50
2022-12-17T19:24:02.556Z,2.57
2022-12-17T19:29:34.693Z,2.76
2022-12-17T19:38:04.261Z,2.87
2022-12-17T19:40:36.257Z,2.72
2022-12-17T19:43:14.785Z,2.81
2022-12-17T19:46:33.431Z,2.57
2022-12-17T19:52:29.876Z,2.51
2022-12-17T19:55:19.257Z,2.62
2022-12-17T20:03:47.030Z,2.75
2022-12-17T20:06:34.938Z,2.58
2022-12-17T20:12:01.379Z,2.65
2022-12-17T20:17:26.169Z,2.65
2022-12-17T20:19:55.170Z,2.66
2022-12-17T20:22:30.756Z,2.75
2022-12-17T20:24:57.381Z,2.79
2022-12-17T20:27:38.926Z,2.86
2022-12-17T20:30:07.316Z,2.72
2022-12-17T20:32:33.855Z,2.78
2022-12-17T20:35:03.478Z,2.96
2022-12-17T20:37:30.079Z,2.89
2022-12-17T20:39:56.889Z,2.57
2022-12-17T20:42:23.532Z,2.53
2022-12-17T20:44:53.375Z,2.68
2022-12-17T20:47:20.119Z,2.80
2022-12-17T20:49:46.599Z,2.75
2022-12-17T20:52:13.647Z,2.79
2022-12-17T20:54:40.149Z,2.66
2022-12-17T20:57:06.559Z,2.76
2022-12-17T20:59:33.010Z,2.88
2022-12-17T21:01:59.503Z,2.65
2022-12-17T21:04:26.084Z,2.68
2022-12-17T21:06:52.990Z,2.73
2022-12-17T21:09:20.923Z,2.63
2022-12-17T21:11:47.614Z,2.50
2022-12-17T21:14:17.089Z,2.51
2022-12-17T21:16:44.503Z,2.58
2022-12-17T21:19:16.759Z,2.60
2022-12-17T21:21:43.743Z,2.76
2022-12-17T21:24:10.545Z,2.60
2022-12-17T21:26:42.231Z,2.45
2022-12-17T21:29:09.119Z,2.56
2022-12-17T21:31:44.647Z,2.62
2022-12-17T21:34:22.762Z,2.70
2022-12-17T21:36:50.492Z,2.68
2022-12-17T21:39:18.641Z,2.61
2022-12-17T21:42:05.362Z,2.55
2022-12-17T21:44:32.225Z,2.41
2022-12-17T21:46:58.847Z,2.44
2022-12-17T21:49:25.483Z,2.50
2022-12-17T21:51:52.283Z,2.52
2022-12-17T21:54:20.021Z,2.60
2022-12-17T21:56:47.508Z,2.84
2022-12-17T21:59:13.926Z,2.61
2022-12-17T22:01:40.443Z,2.58
2022-12-17T22:04:06.997Z,2.58
2022-12-17T22:06:42.008Z,2.55
2022-12-17T22:09:31.435Z,2.57
2022-12-17T22:12:19.975Z,2.80
2022-12-17T22:14:46.810Z,2.87
2022-12-17T22:17:13.269Z,2.84
2022-12-17T22:19:39.905Z,2.84
2022-12-17T22:22:06.377Z,2.71
2022-12-17T22:24:36.446Z,2.65
2022-12-17T22:27:03.777Z,2.61
2022-12-17T22:29:50.273Z,2.59
2022-12-17T22:32:35.049Z,2.60
2022-12-17T22:35:56.418Z,2.50
2022-12-17T22:40:17.858Z,2.49
2022-12-17T22:44:33.577Z,2.39
2022-12-17T22:44:43.343Z,2.18
2022-12-17T22:46:16.405Z,2.18
2022-12-17T22:48:42.947Z,2.22
2022-12-17T22:51:13.348Z,2.15
2022-12-17T22:53:41.955Z,2.20
2022-12-17T22:56:26.340Z,2.32
2022-12-17T22:58:55.895Z,2.33
2022-12-17T23:01:23.324Z,2.36
2022-12-17T23:03:53.760Z,2.19
2022-12-17T23:06:20.950Z,2.25
2022-12-17T23:08:47.580Z,2.28
2022-12-17T23:11:20.085Z,2.17
2022-12-17T23:13:46.986Z,2.16
2022-12-17T23:16:14.246Z,2.07
2022-12-17T23:18:42.199Z,1.93
2022-12-17T23:21:18.068Z,1.87
2022-12-17T23:23:44.927Z,1.88
2022-12-17T23:26:21.689Z,2.09
2022-12-17T23:28:48.415Z,1.98
2022-12-17T23:31:17.846Z,2.08
2022-12-17T23:33:45.260Z,2.07
2022-12-17T23:36:16.467Z,2.11
2022-12-17T23:38:43.252Z,2.04
2022-12-17T23:41:18.822Z,1.88
2022-12-17T23:43:45.685Z,1.83
2022-12-17T23:46:12.883Z,2.10
2022-12-17T23:48:45.316Z,1.98
2022-12-17T23:51:14.765Z,2.05
2022-12-17T23:53:42.486Z,1.98
2022-12-17T23:56:12.642Z,2.05
2022-12-17T23:58:41.051Z,2.00
